Welcome to Northern Hawkes Bay. New Zealand.
PWS Header
      nz Flag



Hit Counter


W3C Valid W3C Valid logo


    Wairoa

Select any of the Stations below to visit their websites.










Historic Data from Weather Underground
Select the location of interest below. Wairoa is the default. Please have patience, this Data is slow to load in.
Northern Hawkes Bay Historical Data
Daily Summary for June 29, 2017 Units:  English    Metric   Both
« Previous Day
Next Day »
Daily Weekly Monthly Yearly Custom
  High: Low: Average:
Temperature: 56.5 °F 40.3 °F 47.7 °F
Dew Point: 51.8 °F 39.9 °F 44.8 °F
Humidity: 99% 71% 91%
Wind Speed: 7.6mph 0mph 2.4mph
Wind Gust: 11.4mph - -
Wind- - WSW
Pressure: 30.3 in 30.2 in -
Precipitation: 0.01 in    
Historical Graphs
 
 
Tabular Data for June 29, 2017
Time Temperature Dew Point Pressure Wind Wind Speed Wind Gust Humidity Rainfall Rate (Hourly) solar
00:03 47.3 °F 46.9 °F 30.3 in Calm   1.6 mph 99% 0 in 0 W/m2
00:08 47.3 °F 46.9 °F 30.2 in NNE 0.7 mph 1.6 mph 99% 0 in 0 W/m2
00:13 47.3 °F 46.9 °F 30.3 in NW 1.6 mph 3.8 mph 99% 0 in 0 W/m2
00:18 47.1 °F 46.9 °F 30.3 in NW 2.2 mph 3.8 mph 99% 0 in 0 W/m2
00:23 47.1 °F 46.9 °F 30.3 in NW 1.6 mph 3.8 mph 99% 0 in 0 W/m2
00:28 46.9 °F 46.8 °F 30.3 in NW 1.6 mph 3.8 mph 99% 0 in 0 W/m2
00:33 46.9 °F 46.8 °F 30.3 in NNW 1.6 mph 3.1 mph 99% 0 in 0 W/m2
00:38 46.8 °F 46.6 °F 30.3 in NNW 1.6 mph 3.1 mph 99% 0 in 0 W/m2
00:39 46.8 °F 46.6 °F 30.3 in NNW 1.6 mph 3.1 mph 99% 0 in 0 W/m2
00:44 46.8 °F 46.6 °F 30.3 in NNW 0.7 mph 2.2 mph 99% 0 in 0 W/m2
00:49 46.8 °F 46.6 °F 30.3 in North 0.7 mph 2.2 mph 99% 0 in 0 W/m2
00:54 46.8 °F 46.6 °F 30.3 in NNW 1.6 mph 2.2 mph 99% 0 in 0 W/m2
00:59 46.6 °F 46.2 °F 30.3 in NW 1.6 mph 3.1 mph 99% 0 in 0 W/m2
01:04 46.6 °F 46.2 °F 30.3 in NW 1.6 mph 3.1 mph 99% 0 in 0 W/m2
01:09 46.4 °F 46 °F 30.3 in NW 1.6 mph 3.1 mph 99% 0 in 0 W/m2
01:14 46.2 °F 45.3 °F 30.3 in NW 1.6 mph 2.2 mph 97% 0 in 0 W/m2
01:19 46.2 °F 45.3 °F 30.2 in NW 1.6 mph 3.1 mph 97% 0 in 0 W/m2
01:24 46 °F 45.1 °F 30.3 in NNW 0.7 mph 3.1 mph 97% 0 in 0 W/m2
01:29 45.9 °F 45.1 °F 30.3 in North 0.7 mph 2.2 mph 97% 0 in 0 W/m2
01:34 45.7 °F 45 °F 30.2 in North 0.7 mph 2.2 mph 97% 0 in 0 W/m2
01:39 45.3 °F 44.4 °F 30.2 in North 1.6 mph 2.2 mph 97% 0 in 0 W/m2
01:44 45.3 °F 44.4 °F 30.3 in North 1.6 mph 2.2 mph 97% 0 in 0 W/m2
01:49 45.1 °F 44.2 °F 30.2 in North 0.7 mph 2.2 mph 97% 0 in 0 W/m2
01:55 45 °F 44.2 °F 30.2 in North 0.7 mph 2.2 mph 97% 0 in 0 W/m2
02:00 45 °F 44.2 °F 30.2 in North 0.7 mph 2.2 mph 97% 0 in 0 W/m2
02:05 44.8 °F 44.1 °F 30.2 in North 0.7 mph 2.2 mph 97% 0 in 0 W/m2
02:10 45 °F 44.2 °F 30.2 in North 1.6 mph 2.2 mph 97% 0 in 0 W/m2
02:15 45 °F 44.2 °F 30.2 in North 1.6 mph 2.2 mph 97% 0 in 0 W/m2
02:20 44.8 °F 44.1 °F 30.2 in North 0.7 mph 2.2 mph 97% 0 in 0 W/m2
02:25 44.8 °F 44.1 °F 30.2 in NW 1.6 mph 3.1 mph 97% 0 in 0 W/m2
02:30 45 °F 44.2 °F 30.2 in NW 2.2 mph 3.1 mph 97% 0 in 0 W/m2
02:35 45.3 °F 44.4 °F 30.2 in NW 1.6 mph 3.8 mph 97% 0 in 0 W/m2
02:40 45.1 °F 44.2 °F 30.2 in NW 0.7 mph 3.8 mph 97% 0 in 0 W/m2
02:45 45 °F 44.2 °F 30.2 in NNW 0.7 mph 3.1 mph 97% 0 in 0 W/m2
02:50 44.6 °F 43.9 °F 30.2 in NNE 2.2 mph 3.1 mph 97% 0 in 0 W/m2
02:55 44.6 °F 43.9 °F 30.2 in Calm   3.1 mph 97% 0 in 0 W/m2
02:57 44.4 °F 43.9 °F 30.2 in NNE 0.7 mph 3.1 mph 98% 0 in 0 W/m2
03:02 44.1 °F 43.5 °F 30.2 in NNE 0.7 mph 2.2 mph 98% 0 in 0 W/m2
03:07 43.9 °F 43.3 °F 30.2 in Calm   2.2 mph 98% 0 in 0 W/m2
03:12 43.9 °F 43.3 °F 30.2 in NNE 1.6 mph 2.2 mph 98% 0 in 0 W/m2
03:17 43.9 °F 43.3 °F 30.2 in North 0.7 mph 2.2 mph 98% 0 in 0 W/m2
03:22 43.7 °F 43.2 °F 30.2 in NNW 0.7 mph 2.2 mph 98% 0 in 0 W/m2
03:27 43.5 °F 43 °F 30.2 in NW 1.6 mph 3.1 mph 98% 0 in 0 W/m2
03:32 43.5 °F 43 °F 30.2 in NW 1.6 mph 3.1 mph 98% 0 in 0 W/m2
03:37 43.3 °F 42.8 °F 30.2 in NNW 1.6 mph 3.1 mph 98% 0 in 0 W/m2
03:42 43.3 °F 42.8 °F 30.2 in North 0.7 mph 3.1 mph 98% 0 in 0 W/m2
03:47 43.3 °F 42.8 °F 30.2 in Calm   2.2 mph 98% 0 in 0 W/m2
03:52 43.3 °F 42.8 °F 30.2 in North 1.6 mph 3.1 mph 98% 0 in 0 W/m2
03:57 43.3 °F 42.8 °F 30.2 in North 0.7 mph 3.1 mph 98% 0 in 0 W/m2
04:03 43.3 °F 42.8 °F 30.2 in North 2.2 mph 3.1 mph 98% 0 in 0 W/m2
04:08 43.3 °F 42.8 °F 30.2 in North 0.7 mph 3.1 mph 98% 0 in 0 W/m2
04:13 43.5 °F 43 °F 30.2 in North 1.6 mph 3.1 mph 98% 0 in 0 W/m2
04:18 43.7 °F 43.2 °F 30.2 in North 1.6 mph 3.1 mph 98% 0 in 0 W/m2
04:24 43.9 °F 43.3 °F 30.2 in North 0.7 mph 3.1 mph 98% 0 in 0 W/m2
04:29 44.1 °F 43.5 °F 30.2 in North 1.6 mph 2.2 mph 98% 0 in 0 W/m2
04:34 44.2 °F 43.7 °F 30.2 in NNW 2.2 mph 3.8 mph 98% 0 in 0 W/m2
04:39 44.4 °F 43.9 °F 30.2 in North 0.7 mph 3.8 mph 98% 0 in 0 W/m2
04:44 44.4 °F 43.9 °F 30.2 in NNE 1.6 mph 3.8 mph 98% 0 in 0 W/m2
04:49 44.4 °F 43.9 °F 30.2 in NNE 0.7 mph 2.2 mph 98% 0 in 0 W/m2
04:54 44.4 °F 43.9 °F 30.2 in Calm   2.2 mph 98% 0 in 0 W/m2
04:59 44.4 °F 43.9 °F 30.2 in NNE 1.6 mph 2.2 mph 98% 0 in 0 W/m2
05:04 44.6 °F 43.9 °F 30.2 in North 0.7 mph 3.1 mph 97% 0 in 0 W/m2
05:09 44.6 °F 43.9 °F 30.2 in North 0.7 mph 3.1 mph 97% 0 in 0 W/m2
05:14 44.6 °F 43.9 °F 30.2 in North 1.6 mph 2.2 mph 97% 0 in 0 W/m2
05:19 44.8 °F 44.1 °F 30.2 in North 0.7 mph 2.2 mph 97% 0 in 0 W/m2
05:24 45 °F 44.2 °F 30.2 in North 0.7 mph 2.2 mph 97% 0 in 0 W/m2
05:34 45 °F 44.2 °F 30.2 in North 0.7 mph 1.6 mph 97% 0 in 0 W/m2
05:39 45.1 °F 44.2 °F 30.2 in NNW 1.6 mph 2.2 mph 97% 0 in 0 W/m2
05:44 45.1 °F 44.2 °F 30.2 in NW 3.1 mph 4.5 mph 97% 0 in 0 W/m2
05:49 45.3 °F 44.4 °F 30.2 in NW 2.2 mph 4.5 mph 97% 0 in 0 W/m2
05:59 45.1 °F 44.2 °F 30.2 in NNW 0.7 mph 3.8 mph 97% 0 in 0 W/m2
06:04 45 °F 44.2 °F 30.2 in North 0.7 mph 2.2 mph 97% 0 in 0 W/m2
06:09 44.8 °F 44.1 °F 30.2 in NNE 0.7 mph 2.2 mph 97% 0 in 0 W/m2
06:14 44.6 °F 43.9 °F 30.2 in NNE 1.6 mph 3.1 mph 97% 0 in 0 W/m2
06:19 44.4 °F 43.9 °F 30.3 in North 1.6 mph 3.1 mph 98% 0 in 0 W/m2
06:24 44.2 °F 43.7 °F 30.3 in North 0.7 mph 2.2 mph 98% 0 in 0 W/m2
06:29 44.2 °F 43.7 °F 30.3 in North 1.6 mph 2.2 mph 98% 0 in 0 W/m2
06:34 44.2 °F 43.7 °F 30.3 in North 0.7 mph 2.2 mph 98% 0 in 0 W/m2
06:39 44.2 °F 43.7 °F 30.3 in North 1.6 mph 3.1 mph 98% 0 in 0 W/m2
06:44 44.2 °F 43.7 °F 30.3 in North 0.7 mph 3.1 mph 98% 0 in 0 W/m2
06:49 44.2 °F 43.7 °F 30.3 in North 0.7 mph 2.2 mph 98% 0 in 0 W/m2
07:08 44.6 °F 43.9 °F 30.3 in North 0.7 mph 1.6 mph 97% 0 in 0 W/m2
07:13 44.6 °F 43.9 °F 30.3 in NNW 0.7 mph 1.6 mph 97% 0 in 0 W/m2
07:18 44.6 °F 43.9 °F 30.3 in NW 0.7 mph 1.6 mph 97% 0 in 0 W/m2
07:23 44.6 °F 43.9 °F 30.3 in NW 0.7 mph 2.2 mph 97% 0 in 0 W/m2
07:28 44.6 °F 43.9 °F 30.3 in NNW 0.7 mph 2.2 mph 97% 0 in 0 W/m2
07:33 44.6 °F 43.9 °F 30.3 in NNW 1.6 mph 2.2 mph 97% 0 in 0 W/m2
07:38 44.6 °F 43.9 °F 30.3 in NNW 0.7 mph 3.1 mph 97% 0 in 0 W/m2
07:43 44.6 °F 43.9 °F 30.3 in NNW 0.7 mph 3.1 mph 97% 0 in 0 W/m2
07:48 44.6 °F 43.9 °F 30.3 in NNW 1.6 mph 2.2 mph 97% 0 in 0 W/m2
07:53 44.6 °F 43.9 °F 30.3 in NNW 0.7 mph 2.2 mph 97% 0 in 1 W/m2
07:58 44.8 °F 44.1 °F 30.3 in NNW 0.7 mph 2.2 mph 97% 0 in 2 W/m2
08:03 44.8 °F 44.1 °F 30.3 in NNW 0.7 mph 2.2 mph 97% 0 in 3 W/m2
08:08 45 °F 44.2 °F 30.3 in NW 0.7 mph 1.6 mph 97% 0 in 4 W/m2
08:13 45 °F 44.2 °F 30.3 in NW 0.7 mph 1.6 mph 97% 0 in 4 W/m2
08:18 45.1 °F 44.2 °F 30.3 in NW 0.7 mph 1.6 mph 97% 0 in 7 W/m2
08:23 45.1 °F 44.2 °F 30.3 in NW 0.7 mph 1.6 mph 97% 0 in 12 W/m2
08:28 45.3 °F 44.4 °F 30.3 in NW 0.7 mph 1.6 mph 97% 0 in 19 W/m2
08:33 45.5 °F 44.8 °F 30.3 in NW 0.7 mph 1.6 mph 97% 0 in 25 W/m2
08:38 45.7 °F 45 °F 30.3 in NW 1.6 mph 2.2 mph 97% 0 in 34 W/m2
08:43 45.9 °F 45.1 °F 30.3 in NNW 1.6 mph 3.1 mph 97% 0 in 40 W/m2
08:48 46 °F 45.1 °F 30.3 in NNW 2.2 mph 3.1 mph 97% 0 in 56 W/m2
08:53 46.4 °F 46 °F 30.3 in NNW 2.2 mph 3.8 mph 99% 0 in 149 W/m2
08:58 47.1 °F 46.9 °F 30.3 in NNW 1.6 mph 3.8 mph 99% 0 in 68 W/m2
09:03 47.5 °F 47.1 °F 30.3 in NNW 1.6 mph 3.8 mph 99% 0 in 202 W/m2
09:08 48.7 °F 48.6 °F 30.3 in NNW 0.7 mph 3.8 mph 99% 0 in 243 W/m2
09:13 50.2 °F 49.8 °F 30.3 in NNW 2.2 mph 3.1 mph 99% 0 in 248 W/m2
09:18 50.4 °F 50.2 °F 30.3 in NNW 1.6 mph 4.5 mph 99% 0 in 260 W/m2
09:23 50.9 °F 50.5 °F 30.3 in NW 2.2 mph 4.5 mph 99% 0.01 in 264 W/m2
09:28 50.7 °F 50.5 °F 30.3 in NW 2.2 mph 5.4 mph 99% 0.01 in 265 W/m2
09:33 50.9 °F 50.5 °F 30.3 in NW 3.1 mph 5.4 mph 99% 0.01 in 239 W/m2
09:38 51.1 °F 50.7 °F 30.3 in NW 1.6 mph 3.8 mph 99% 0.01 in 286 W/m2
09:43 51.8 °F 51.3 °F 30.3 in NW 1.6 mph 4.5 mph 98% 0.01 in 273 W/m2
09:48 52.3 °F 51.8 °F 30.3 in NW 3.1 mph 6 mph 98% 0.01 in 128 W/m2
09:53 51.6 °F 51.4 °F 30.3 in NW 3.1 mph 6 mph 99% 0.01 in 76 W/m2
09:58 50.9 °F 49.5 °F 30.3 in NW 2.2 mph 4.5 mph 95% 0.01 in 63 W/m2
10:03 50.5 °F 48.9 °F 30.3 in WNW 1.6 mph 3.8 mph 94% 0.01 in 62 W/m2
10:08 50.2 °F 48.2 °F 30.3 in WNW 0.7 mph 3.1 mph 93% 0.01 in 69 W/m2
10:13 50.4 °F 48.4 °F 30.3 in NW 2.2 mph 3.1 mph 93% 0.01 in 51 W/m2
10:18 51.6 °F 49.6 °F 30.3 in NW 1.6 mph 3.1 mph 93% 0.01 in 71 W/m2
10:23 52.5 °F 49.5 °F 30.3 in NW 0.7 mph 3.1 mph 89% 0 in 68 W/m2
10:28 54 °F 48.9 °F 30.3 in WNW 1.6 mph 3.1 mph 83% 0 in 68 W/m2
10:33 54.7 °F 48.9 °F 30.3 in West 2.2 mph 3.8 mph 81% 0 in 66 W/m2
10:38 55 °F 48.7 °F 30.3 in WSW 3.8 mph 5.4 mph 79% 0 in 62 W/m2
10:43 54.5 °F 46.4 °F 30.3 in SW 4.5 mph 6.9 mph 74% 0 in 59 W/m2
10:48 54.3 °F 45.9 °F 30.3 in SW 4.5 mph 7.6 mph 73% 0 in 58 W/m2
10:53 54.1 °F 45.7 °F 30.3 in SW 5.4 mph 10.7 mph 73% 0 in 57 W/m2
10:58 53.6 °F 45.5 °F 30.3 in SW 4.5 mph 10.7 mph 74% 0 in 58 W/m2
11:03 54 °F 46.2 °F 30.3 in SW 4.5 mph 9.2 mph 75% 0 in 59 W/m2
11:08 53.6 °F 45.5 °F 30.3 in SW 5.4 mph 9.2 mph 74% 0 in 58 W/m2
11:13 53.6 °F 45.9 °F 30.3 in SW 5.4 mph 7.6 mph 75% 0 in 59 W/m2
11:18 53.4 °F 45.7 °F 30.3 in SW 6 mph 9.2 mph 75% 0 in 59 W/m2
11:23 53.8 °F 46.4 °F 30.3 in SW 6 mph 9.2 mph 76% 0 in 59 W/m2
11:28 53.8 °F 46 °F 30.3 in SW 4.5 mph 8.3 mph 75% 0 in 62 W/m2
11:33 53.2 °F 46.2 °F 30.3 in SW 6.9 mph 9.2 mph 77% 0 in 55 W/m2
11:38 53.2 °F 46.6 °F 30.3 in SW 4.5 mph 9.2 mph 78% 0 in 61 W/m2
11:43 53.6 °F 46.2 °F 30.3 in SW 5.4 mph 9.2 mph 76% 0 in 62 W/m2
11:48 53.8 °F 46.8 °F 30.3 in SW 5.4 mph 9.8 mph 77% 0 in 60 W/m2
11:53 53.8 °F 46 °F 30.3 in SW 5.4 mph 10.7 mph 75% 0 in 59 W/m2
11:58 53.6 °F 45.9 °F 30.3 in SW 6.9 mph 10.7 mph 75% 0 in 60 W/m2
12:03 53.6 °F 46.2 °F 30.3 in WSW 5.4 mph 9.2 mph 76% 0 in 61 W/m2
12:08 53.8 °F 46.4 °F 30.3 in WSW 4.5 mph 8.3 mph 76% 0 in 59 W/m2
12:13 54.1 °F 46.4 °F 30.3 in WSW 3.8 mph 10.7 mph 75% 0 in 60 W/m2
12:18 55 °F 47.3 °F 30.3 in WSW 5.4 mph 10.7 mph 75% 0 in 55 W/m2
12:23 55 °F 47.3 °F 30.3 in WSW 5.4 mph 8.3 mph 75% 0 in 58 W/m2
12:28 54.7 °F 46.6 °F 30.3 in WSW 3.8 mph 9.2 mph 74% 0 in 58 W/m2
12:33 54.9 °F 46.8 °F 30.3 in WSW 5.4 mph 9.8 mph 74% 0 in 60 W/m2
12:38 54.1 °F 46 °F 30.3 in WSW 7.6 mph 11.4 mph 74% 0 in 59 W/m2
12:43 54.3 °F 46.6 °F 30.3 in SW 4.5 mph 11.4 mph 75% 0 in 64 W/m2
12:48 55.2 °F 47.5 °F 30.3 in SW 6.9 mph 10.7 mph 75% 0 in 68 W/m2
12:53 55.2 °F 46.8 °F 30.3 in SW 6 mph 9.2 mph 73% 0 in 64 W/m2
12:58 55.8 °F 47.7 °F 30.3 in WSW 4.5 mph 9.2 mph 74% 0 in 60 W/m2
13:03 56.1 °F 47.1 °F 30.3 in SW 2.2 mph 9.2 mph 72% 0 in 59 W/m2
13:08 56.5 °F 47.1 °F 30.3 in SW 6.9 mph 9.2 mph 71% 0 in 60 W/m2
13:13 55.9 °F 46.8 °F 30.3 in SW 6 mph 9.2 mph 71% 0 in 60 W/m2
13:18 55.9 °F 46.8 °F 30.3 in SW 5.4 mph 9.2 mph 71% 0 in 60 W/m2
13:23 55.6 °F 46.8 °F 30.3 in SW 6 mph 9.2 mph 72% 0 in 62 W/m2
13:28 55.9 °F 47.5 °F 30.3 in SW 3.1 mph 9.2 mph 73% 0 in 65 W/m2
13:33 56.1 °F 47.7 °F 30.3 in SW 3.8 mph 8.3 mph 73% 0 in 66 W/m2
13:38 55.8 °F 46.9 °F 30.3 in SW 4.5 mph 8.3 mph 72% 0 in 67 W/m2
13:43 56.1 °F 47.1 °F 30.3 in SSW 5.4 mph 8.3 mph 72% 0 in 68 W/m2
13:48 55.6 °F 46.8 °F 30.3 in SW 3.1 mph 9.8 mph 72% 0 in 72 W/m2
13:53 56.5 °F 47.8 °F 30.3 in SW 6 mph 9.8 mph 73% 0 in 94 W/m2
13:58 56.3 °F 46.9 °F 30.2 in SW 6 mph 8.3 mph 71% 0 in 155 W/m2
14:03 55.9 °F 46.8 °F 30.2 in SW 4.5 mph 8.3 mph 71% 0 in 213 W/m2
14:08 55.8 °F 46.9 °F 30.2 in SW 4.5 mph 9.2 mph 72% 0 in 230 W/m2
14:13 55.8 °F 46.9 °F 30.3 in SW 6 mph 9.2 mph 72% 0 in 239 W/m2
14:18 55.6 °F 46.8 °F 30.3 in SW 5.4 mph 11.4 mph 72% 0 in 237 W/m2
14:23 55.6 °F 47.5 °F 30.3 in SW 6 mph 11.4 mph 74% 0 in 231 W/m2
14:28 55.2 °F 46.8 °F 30.3 in SW 3.8 mph 9.2 mph 73% 0 in 227 W/m2
14:33 55.4 °F 46.9 °F 30.3 in SW 3.1 mph 9.2 mph 73% 0 in 223 W/m2
14:38 55.4 °F 46.9 °F 30.3 in SW 3.8 mph 9.2 mph 73% 0 in 219 W/m2
14:43 55.9 °F 47.5 °F 30.3 in SW 4.5 mph 9.2 mph 73% 0 in 213 W/m2
14:48 55.4 °F 46.6 °F 30.3 in SW 6 mph 8.3 mph 72% 0 in 207 W/m2
14:53 55.2 °F 46.8 °F 30.3 in SW 4.5 mph 9.2 mph 73% 0 in 202 W/m2
14:58 55.4 °F 46.9 °F 30.3 in WSW 5.4 mph 9.2 mph 73% 0 in 195 W/m2
15:03 55.2 °F 46.8 °F 30.3 in WSW 3.8 mph 8.3 mph 73% 0 in 187 W/m2
15:08 55 °F 46.6 °F 30.3 in WSW 3.8 mph 8.3 mph 73% 0 in 178 W/m2
15:13 55.2 °F 46.8 °F 30.3 in SW 3.1 mph 7.6 mph 73% 0 in 165 W/m2
15:18 55.8 °F 46.9 °F 30.3 in SW 3.8 mph 7.6 mph 72% 0 in 147 W/m2
15:23 55.6 °F 46.8 °F 30.3 in SW 3.1 mph 7.6 mph 72% 0 in 130 W/m2
15:28 55.8 °F 47.1 °F 30.3 in SW 3.1 mph 7.6 mph 73% 0 in 120 W/m2
15:33 55.9 °F 47.1 °F 30.3 in WSW 3.1 mph 6.9 mph 72% 0 in 113 W/m2
15:38 56.3 °F 47.8 °F 30.3 in SW 3.1 mph 5.4 mph 73% 0 in 104 W/m2
15:43 56.1 °F 46.9 °F 30.3 in SW 4.5 mph 6 mph 71% 0 in 94 W/m2
15:48 55.8 °F 46.9 °F 30.3 in SW 3.8 mph 6.9 mph 72% 0 in 85 W/m2
15:53 55.2 °F 46.4 °F 30.2 in SW 3.8 mph 6.9 mph 72% 0 in 75 W/m2
15:58 55 °F 46.2 °F 30.3 in WSW 1.6 mph 6 mph 72% 0 in 66 W/m2
16:03 55.8 °F 46.9 °F 30.3 in WSW 3.8 mph 5.4 mph 72% 0 in 57 W/m2
16:08 55.4 °F 46.6 °F 30.2 in WSW 3.1 mph 5.4 mph 72% 0 in 49 W/m2
16:13 55.6 °F 47.1 °F 30.2 in WSW 0.7 mph 5.4 mph 73% 0 in 41 W/m2
16:18 55.9 °F 47.1 °F 30.3 in West 0.7 mph 3.8 mph 72% 0 in 35 W/m2
16:23 56.5 °F 47.7 °F 30.3 in West 0.7 mph 3.8 mph 72% 0 in 29 W/m2
16:28 56.3 °F 46.9 °F 30.3 in WNW 0.7 mph 2.2 mph 71% 0 in 23 W/m2
16:33 55.9 °F 46.8 °F 30.2 in WNW 1.6 mph 2.2 mph 71% 0 in 19 W/m2
16:38 55.6 °F 46.2 °F 30.2 in Calm   2.2 mph 71% 0 in 13 W/m2
16:43 55.4 °F 46.6 °F 30.3 in Calm   1.6 mph 72% 0 in 8 W/m2
16:48 54.7 °F 45.9 °F 30.2 in Calm   0.7 mph 72% 0 in 4 W/m2
16:53 53.2 °F 44.8 °F 30.3 in Calm   0.7 mph 73% 0 in 1 W/m2
16:58 51.8 °F 44.1 °F 30.3 in East 0.7 mph 1.6 mph 75% 0 in 0 W/m2
17:03 51.1 °F 44.4 °F 30.3 in Calm   1.6 mph 78% 0 in 0 W/m2
17:08 50.5 °F 44.2 °F 30.3 in Calm   1.6 mph 79% 0 in 0 W/m2
17:18 49.3 °F 44.8 °F 30.3 in NNW 0.7 mph 2.2 mph 84% 0 in 0 W/m2
17:23 48.9 °F 44.6 °F 30.3 in NW 0.7 mph 2.2 mph 85% 0 in 0 W/m2
17:28 48.4 °F 44.4 °F 30.3 in NW 0.7 mph 2.2 mph 86% 0 in 0 W/m2
17:33 47.8 °F 44.4 °F 30.3 in NNW 0.7 mph 2.2 mph 88% 0 in 0 W/m2
17:38 47.1 °F 44.1 °F 30.3 in North 0.7 mph 2.2 mph 89% 0 in 0 W/m2
17:43 46.9 °F 44.2 °F 30.3 in NW 1.6 mph 2.2 mph 90% 0 in 0 W/m2
17:48 46.4 °F 43.9 °F 30.3 in NW 0.7 mph 2.2 mph 91% 0 in 0 W/m2
17:53 46.2 °F 44.1 °F 30.3 in NW 0.7 mph 2.2 mph 92% 0 in 0 W/m2
17:58 45.9 °F 44.1 °F 30.3 in North 0.7 mph 2.2 mph 93% 0 in 0 W/m2
18:03 45.7 °F 43.9 °F 30.3 in North 1.6 mph 2.2 mph 93% 0 in 0 W/m2
18:08 45.5 °F 43.9 °F 30.3 in North 0.7 mph 2.2 mph 94% 0 in 0 W/m2
18:13 45.3 °F 43.7 °F 30.3 in North 0.7 mph 2.2 mph 94% 0 in 0 W/m2
18:18 45 °F 43.5 °F 30.3 in NNE 1.6 mph 2.2 mph 95% 0 in 0 W/m2
18:28 44.8 °F 43.7 °F 30.3 in North 1.6 mph 3.1 mph 96% 0 in 0 W/m2
18:33 44.8 °F 43.7 °F 30.3 in North 2.2 mph 3.1 mph 96% 0 in 0 W/m2
18:38 44.6 °F 43.9 °F 30.3 in North 2.2 mph 3.1 mph 97% 0 in 0 W/m2
18:43 44.4 °F 43.9 °F 30.3 in North 1.6 mph 3.1 mph 98% 0 in 0 W/m2
18:48 44.2 °F 43.7 °F 30.3 in North 1.6 mph 3.1 mph 98% 0 in 0 W/m2
18:53 44.1 °F 43.5 °F 30.3 in North 1.6 mph 3.1 mph 98% 0 in 0 W/m2
18:58 43.7 °F 43.2 °F 30.3 in NNW 2.2 mph 3.1 mph 98% 0 in 0 W/m2
19:03 43.7 °F 43.2 °F 30.3 in NW 2.2 mph 3.8 mph 98% 0 in 0 W/m2
19:08 43.5 °F 43 °F 30.3 in NW 2.2 mph 3.8 mph 98% 0 in 0 W/m2
19:13 43.7 °F 43.2 °F 30.3 in NW 2.2 mph 3.8 mph 98% 0 in 0 W/m2
19:18 43.3 °F 42.8 °F 30.3 in NW 2.2 mph 3.8 mph 98% 0 in 0 W/m2
19:23 43.3 °F 42.8 °F 30.3 in NNW 2.2 mph 4.5 mph 98% 0 in 0 W/m2
19:28 43.3 °F 42.8 °F 30.3 in NW 2.2 mph 4.5 mph 98% 0 in 0 W/m2
19:33 43.3 °F 42.8 °F 30.3 in NW 1.6 mph 4.5 mph 98% 0 in 0 W/m2
19:38 43.3 °F 42.8 °F 30.3 in NW 3.1 mph 4.5 mph 98% 0 in 0 W/m2
19:43 43.3 °F 42.8 °F 30.3 in NW 2.2 mph 4.5 mph 98% 0 in 0 W/m2
19:48 43.2 °F 42.6 °F 30.3 in NW 3.1 mph 4.5 mph 98% 0 in 0 W/m2
19:53 43.2 °F 42.6 °F 30.3 in NNW 3.1 mph 4.5 mph 98% 0 in 0 W/m2
19:58 43.2 °F 42.6 °F 30.3 in NW 3.1 mph 5.4 mph 98% 0 in 0 W/m2
20:03 43.2 °F 42.6 °F 30.3 in NW 3.1 mph 6 mph 98% 0 in 0 W/m2
20:08 43.2 °F 42.6 °F 30.3 in NW 3.1 mph 6 mph 98% 0 in 0 W/m2
20:13 43.2 °F 42.6 °F 30.3 in NNW 3.1 mph 5.4 mph 98% 0 in 0 W/m2
20:18 43 °F 42.4 °F 30.3 in NNW 2.2 mph 5.4 mph 98% 0 in 0 W/m2
20:23 42.8 °F 42.3 °F 30.3 in NNW 2.2 mph 3.8 mph 98% 0 in 0 W/m2
20:28 42.8 °F 42.3 °F 30.3 in NW 2.2 mph 4.5 mph 98% 0 in 0 W/m2
20:33 42.4 °F 42.3 °F 30.3 in NW 2.2 mph 4.5 mph 99% 0 in 0 W/m2
20:38 42.4 °F 42.3 °F 30.3 in NW 3.1 mph 4.5 mph 99% 0 in 0 W/m2
20:48 42.3 °F 42.1 °F 30.3 in NW 3.1 mph 5.4 mph 99% 0 in 0 W/m2
20:53 42.3 °F 42.1 °F 30.3 in NW 2.2 mph 5.4 mph 99% 0 in 0 W/m2
20:58 42.1 °F 41.7 °F 30.3 in NW 2.2 mph 4.5 mph 99% 0 in 0 W/m2
21:03 42.1 °F 41.7 °F 30.3 in NW 3.1 mph 4.5 mph 99% 0 in 0 W/m2
21:08 42.1 °F 41.7 °F 30.3 in NNW 3.1 mph 4.5 mph 99% 0 in 0 W/m2
21:13 42.3 °F 42.1 °F 30.3 in North 3.1 mph 4.5 mph 99% 0 in 0 W/m2
21:18 42.4 °F 42.3 °F 30.3 in NNW 3.1 mph 5.4 mph 99% 0 in 0 W/m2
21:23 42.6 °F 42.4 °F 30.3 in NNW 3.1 mph 5.4 mph 99% 0 in 0 W/m2
21:28 42.6 °F 42.4 °F 30.3 in NNW 3.1 mph 5.4 mph 99% 0 in 0 W/m2
21:33 42.6 °F 42.4 °F 30.3 in NW 3.8 mph 5.4 mph 99% 0 in 0 W/m2
21:43 42.3 °F 42.1 °F 30.3 in NW 3.8 mph 5.4 mph 99% 0 in 0 W/m2
21:48 42.1 °F 41.7 °F 30.3 in NW 3.8 mph 5.4 mph 99% 0 in 0 W/m2
21:53 41.9 °F 41.5 °F 30.3 in NW 3.8 mph 5.4 mph 99% 0 in 0 W/m2
21:58 41.7 °F 41.5 °F 30.3 in NW 3.8 mph 5.4 mph 99% 0 in 0 W/m2
22:03 41.5 °F 41.4 °F 30.3 in NW 3.8 mph 5.4 mph 99% 0 in 0 W/m2
22:08 41.5 °F 41.4 °F 30.3 in NW 3.8 mph 6 mph 99% 0 in 0 W/m2
22:13 41.5 °F 41.4 °F 30.3 in NW 3.8 mph 6.9 mph 99% 0 in 0 W/m2
22:18 41.4 °F 41.2 °F 30.3 in NW 2.2 mph 6.9 mph 99% 0 in 0 W/m2
22:23 41.4 °F 41.2 °F 30.3 in NW 3.8 mph 5.4 mph 99% 0 in 0 W/m2
22:28 41.2 °F 40.8 °F 30.3 in NW 5.4 mph 6.9 mph 99% 0 in 0 W/m2
22:33 41.2 °F 40.8 °F 30.3 in NW 4.5 mph 6.9 mph 99% 0 in 0 W/m2
22:38 41 °F 40.6 °F 30.3 in NW 4.5 mph 6.9 mph 99% 0 in 0 W/m2
22:43 41.7 °F 41.5 °F 30.3 in NW 4.5 mph 6.9 mph 99% 0 in 0 W/m2
22:48 41 °F 40.6 °F 30.3 in NW 3.8 mph 6.9 mph 99% 0 in 0 W/m2
22:53 41 °F 40.6 °F 30.3 in NNW 3.1 mph 6 mph 99% 0 in 0 W/m2
22:58 40.8 °F 40.6 °F 30.3 in NNW 2.2 mph 6 mph 99% 0 in 0 W/m2
23:03 40.8 °F 40.6 °F 30.3 in NNW 3.8 mph 5.4 mph 99% 0 in 0 W/m2
23:08 40.6 °F 40.5 °F 30.3 in NNW 3.1 mph 5.4 mph 99% 0 in 0 W/m2
23:13 40.6 °F 40.5 °F 30.3 in NNW 3.8 mph 5.4 mph 99% 0 in 0 W/m2
23:18 40.6 °F 40.5 °F 30.3 in NNW 3.8 mph 6 mph 99% 0 in 0 W/m2
23:23 41 °F 40.6 °F 30.3 in NNW 3.8 mph 6 mph 99% 0 in 0 W/m2
23:28 40.6 °F 40.5 °F 30.3 in NNW 3.8 mph 6 mph 99% 0 in 0 W/m2
23:33 40.8 °F 40.6 °F 30.3 in NNW 3.8 mph 6 mph 99% 0 in 0 W/m2
23:38 40.8 °F 40.6 °F 30.3 in NNW 3.1 mph 6 mph 99% 0 in 0 W/m2
23:48 40.8 °F 40.6 °F 30.3 in NNW 3.8 mph 6 mph 99% 0 in 0 W/m2
23:53 40.6 °F 40.5 °F 30.3 in NNW 3.8 mph 6 mph 99% 0 in 0 W/m2
23:58 40.3 °F 39.9 °F 30.3 in NW 3.1 mph 5.4 mph 99% 0 in 0 W/m2
Northern Hawkes Bay. New Zealand Historic Data
Compliments of Weather Underground - 2.25 mb